« 趣味的航空路誌改訂情報 2013/03/07 thu | トップページ | 初搭乗 南ぬ島新石垣空港 2013/3/8 fri »

2013/03/10

祝開港 南ぬ島新石垣空港 2013/3/7 thu

ぱいーぐるは、南ぬ島新石垣空港に生息していると聞きつけて、富山探検隊は、夜霧にまぎれて空港周辺に展開した。

20130307_roig_000moon

やばい、大分欠けてはいるが月が見ている。

20130307_roig_001tem

闇夜に浮かぶ管制塔。時刻は5時半。

20130307_roig_002tem_2

エプロン照明はすでに点灯され、準備が進んでいるようだ。ラジオには試験放送の音が。

ROIG 062100Z 11005KT 9999 FEW028 20/14 Q1019

20130307_roig_003rw04

6:09 滑走路照明が点灯して、おもわず探検隊一同おーぉぉぉと、拍手。

20130307_roig_004vic

黄色い車が出てきて、滑走路点検が始まった。

20130307_roig_005tem_2

6:40 少しずつ空が明るくなってきます。先島アプローチにこの日初めて着陸する ANA WINGS の機体がコンタクトしてきました。

ROIG 062200Z 16003KT 110V190 9999 FEW030 SCT120 19/13 Q1019

20130307_roig_006tem

7時を回って#6スポットに青組のスタッフが待機しました。

20130307_roig_007ja8419

7:05 遠く旧石垣空港上空にライトを確認。レーダーベクターされた一番機を視認。

20130307_roig_008ja8419

20130307_roig_009ja8419

AKX5541 ROAH-ROIG JA8419 B737-54K

前日、旧石垣空港を最後に飛び立った機体が、回航便として一番機となりました。

20130307_roig_010ja8419

7:11 太平洋に昇った朝日が雲間から顔をのぞかせ歓迎しています。

20130307_roig_011ja8419

回航便ですが、消防の歓迎放水がありました。

whitewing681 さんの動画

20130307_roig_012ja969a

JA969A AW139 JCG

旧石垣空港場外から飛び立った海保のへりがパトロール途中に空港一周して出かけていきました。

ROIG 062300Z 17003KT 140V220 9999 FEW030 SCT120 19/14 Q1019

20130307_roig_013ja8939

8:14 営業一番機が北から進入。

20130307_roig_014ja8939

20130307_roig_015ja8939

JTA601 ROAH-ROIG JA8939 B737-4Q3

機体はジンベエジェット

20130307_roig_016ja8939

滑走路をゆっくり流してエプロンにやってきます。今までのような急減速は、体験できなくなりました。

20130307_roig_017ja8939

8:17 放水アーチに歓迎されてスポットイン

20130307_roig_018ja8939

まるで機体洗浄のような大量の放水でした。

20130307_roig_019ja8939

はい、消防車のミッション終了。お疲れ様でした。これからも安全にお願いします。

whitewing681 さんの動画

20130307_roig_020ja8419

8:25 出発一番機がプッシュバック。

20130307_roig_021ja8419

20130307_roig_022ja8597

JTA1601 ROAH-ROIG JA8597 B737-4Q3

8:29 タクシー開始とともに、本日臨時便としてぱいーぐる・ピカリャ~ジェットがやってきた。

20130307_roig_023ja8419

朝日に照らされてRW22へ。

20130307_roig_024bs

この空港の場所は、地下に洞窟等があって、朝はコウモリや野鳥が群れ飛んでいた。先ほどのぱいーぐるが、バードスウィープを要求。なーんだ、冠鷲って以外に他の鳥に好かれているのか!

20130307_roig_025ja8419

20130307_roig_026ja8419

ANA1762 ROIG-ROAH JA8419 B737-54K

8:36 エアボーン

これから、たくさんのお客さんを運んで、南ん島の益々の発展を期待しています。

whitewing681 さんの動画

つづく・・・

|

« 趣味的航空路誌改訂情報 2013/03/07 thu | トップページ | 初搭乗 南ぬ島新石垣空港 2013/3/8 fri »

石垣空港」カテゴリの記事

コメント

コメントを書く



(ウェブ上には掲載しません)


コメントは記事投稿者が公開するまで表示されません。



トラックバック


この記事へのトラックバック一覧です: 祝開港 南ぬ島新石垣空港 2013/3/7 thu:

« 趣味的航空路誌改訂情報 2013/03/07 thu | トップページ | 初搭乗 南ぬ島新石垣空港 2013/3/8 fri »